sensor_id;sensor_type;location;lat;lon;timestamp;pressure;altitude;pressure_sealevel;temperature;humidity
28027;BME280;15344;52.342;-1.290;2024-02-23T00:00:56;97024.92;;;4.06;100.00
28027;BME280;15344;52.342;-1.290;2024-02-23T00:03:22;97029.87;;;4.10;100.00
28027;BME280;15344;52.342;-1.290;2024-02-23T00:05:47;97024.64;;;4.22;100.00
28027;BME280;15344;52.342;-1.290;2024-02-23T00:08:13;97021.41;;;3.63;100.00
28027;BME280;15344;52.342;-1.290;2024-02-23T00:10:38;97024.38;;;4.37;100.00
28027;BME280;15344;52.342;-1.290;2024-02-23T00:13:04;97022.41;;;3.99;100.00
28027;BME280;15344;52.342;-1.290;2024-02-23T00:15:29;97020.38;;;4.50;100.00
28027;BME280;15344;52.342;-1.290;2024-02-23T00:17:55;97018.98;;;3.99;100.00
28027;BME280;15344;52.342;-1.290;2024-02-23T00:20:21;97019.79;;;4.15;100.00
28027;BME280;15344;52.342;-1.290;2024-02-23T00:22:46;97020.23;;;4.36;100.00
28027;BME280;15344;52.342;-1.290;2024-02-23T00:25:12;97020.46;;;4.77;100.00
28027;BME280;15344;52.342;-1.290;2024-02-23T00:27:37;97020.28;;;4.45;100.00
28027;BME280;15344;52.342;-1.290;2024-02-23T00:30:04;97019.19;;;4.34;100.00
28027;BME280;15344;52.342;-1.290;2024-02-23T00:32:29;97021.95;;;3.70;100.00
28027;BME280;15344;52.342;-1.290;2024-02-23T00:34:56;97022.97;;;3.72;100.00
28027;BME280;15344;52.342;-1.290;2024-02-23T00:37:19;97025.64;;;4.33;100.00
28027;BME280;15344;52.342;-1.290;2024-02-23T00:39:45;97022.74;;;3.80;100.00
28027;BME280;15344;52.342;-1.290;2024-02-23T00:42:10;97014.46;;;4.42;100.00
28027;BME280;15344;52.342;-1.290;2024-02-23T00:44:36;97014.79;;;3.96;100.00
28027;BME280;15344;52.342;-1.290;2024-02-23T00:47:01;97017.55;;;3.97;100.00
28027;BME280;15344;52.342;-1.290;2024-02-23T00:49:27;97018.58;;;3.72;100.00
28027;BME280;15344;52.342;-1.290;2024-02-23T00:51:53;97015.35;;;3.28;100.00
28027;BME280;15344;52.342;-1.290;2024-02-23T00:54:18;97021.94;;;3.56;100.00
28027;BME280;15344;52.342;-1.290;2024-02-23T00:56:44;97016.30;;;4.02;100.00
28027;BME280;15344;52.342;-1.290;2024-02-23T00:59:10;97017.57;;;3.70;100.00
28027;BME280;15344;52.342;-1.290;2024-02-23T01:01:35;97014.38;;;4.19;100.00
28027;BME280;15344;52.342;-1.290;2024-02-23T01:04:01;97006.29;;;3.94;100.00
28027;BME280;15344;52.342;-1.290;2024-02-23T01:06:26;97005.15;;;3.73;100.00
28027;BME280;15344;52.342;-1.290;2024-02-23T01:08:52;97004.16;;;3.89;100.00
28027;BME280;15344;52.342;-1.290;2024-02-23T01:11:18;97004.37;;;3.58;100.00
28027;BME280;15344;52.342;-1.290;2024-02-23T01:13:43;97002.18;;;4.18;100.00
28027;BME280;15344;52.342;-1.290;2024-02-23T01:16:10;97006.52;;;3.88;100.00
28027;BME280;15344;52.342;-1.290;2024-02-23T01:18:34;97004.14;;;3.76;100.00
28027;BME280;15344;52.342;-1.290;2024-02-23T01:21:00;96999.89;;;3.94;100.00
28027;BME280;15344;52.342;-1.290;2024-02-23T01:23:25;97000.25;;;3.94;100.00
28027;BME280;15344;52.342;-1.290;2024-02-23T01:25:51;96995.75;;;4.38;100.00
28027;BME280;15344;52.342;-1.290;2024-02-23T01:28:17;96995.02;;;3.99;100.00
28027;BME280;15344;52.342;-1.290;2024-02-23T01:30:42;96997.85;;;3.78;100.00
28027;BME280;15344;52.342;-1.290;2024-02-23T01:33:08;96991.56;;;3.81;100.00
28027;BME280;15344;52.342;-1.290;2024-02-23T01:35:33;96988.99;;;4.23;100.00
28027;BME280;15344;52.342;-1.290;2024-02-23T01:37:59;96984.33;;;4.10;100.00
28027;BME280;15344;52.342;-1.290;2024-02-23T01:40:25;96980.19;;;3.89;100.00
28027;BME280;15344;52.342;-1.290;2024-02-23T01:45:16;96971.46;;;4.29;100.00
28027;BME280;15344;52.342;-1.290;2024-02-23T01:47:42;96969.62;;;4.15;100.00
28027;BME280;15344;52.342;-1.290;2024-02-23T01:50:08;96966.20;;;4.20;100.00
28027;BME280;15344;52.342;-1.290;2024-02-23T01:52:33;96967.88;;;3.83;100.00
28027;BME280;15344;52.342;-1.290;2024-02-23T01:54:58;96967.11;;;3.81;100.00
28027;BME280;15344;52.342;-1.290;2024-02-23T01:57:24;96963.66;;;3.51;100.00
28027;BME280;15344;52.342;-1.290;2024-02-23T01:59:50;96962.95;;;3.82;100.00
28027;BME280;15344;52.342;-1.290;2024-02-23T02:02:16;96955.70;;;4.18;100.00
28027;BME280;15344;52.342;-1.290;2024-02-23T02:04:41;96953.41;;;4.09;100.00
28027;BME280;15344;52.342;-1.290;2024-02-23T02:07:07;96950.07;;;3.84;100.00
28027;BME280;15344;52.342;-1.290;2024-02-23T02:09:32;96949.11;;;4.14;100.00
28027;BME280;15344;52.342;-1.290;2024-02-23T02:11:58;96945.31;;;4.43;100.00
28027;BME280;15344;52.342;-1.290;2024-02-23T02:14:23;96948.66;;;4.54;100.00
28027;BME280;15344;52.342;-1.290;2024-02-23T02:16:49;96948.11;;;4.35;100.00
28027;BME280;15344;52.342;-1.290;2024-02-23T02:19:15;96943.50;;;4.26;100.00
28027;BME280;15344;52.342;-1.290;2024-02-23T02:21:40;96943.16;;;4.63;100.00
28027;BME280;15344;52.342;-1.290;2024-02-23T02:24:06;96943.75;;;4.14;100.00
28027;BME280;15344;52.342;-1.290;2024-02-23T02:26:31;96944.47;;;5.09;100.00
28027;BME280;15344;52.342;-1.290;2024-02-23T02:28:57;96943.39;;;4.60;100.00
28027;BME280;15344;52.342;-1.290;2024-02-23T02:31:22;96943.21;;;4.21;100.00
28027;BME280;15344;52.342;-1.290;2024-02-23T02:33:47;96936.59;;;4.36;100.00
28027;BME280;15344;52.342;-1.290;2024-02-23T02:36:13;96936.35;;;4.54;100.00
28027;BME280;15344;52.342;-1.290;2024-02-23T02:38:39;96933.17;;;4.98;100.00
28027;BME280;15344;52.342;-1.290;2024-02-23T02:41:04;96932.44;;;4.96;100.00
28027;BME280;15344;52.342;-1.290;2024-02-23T02:43:30;96927.66;;;4.61;100.00
28027;BME280;15344;52.342;-1.290;2024-02-23T02:45:55;96924.56;;;4.56;100.00
28027;BME280;15344;52.342;-1.290;2024-02-23T02:48:21;96921.42;;;4.90;100.00
28027;BME280;15344;52.342;-1.290;2024-02-23T02:50:46;96917.69;;;5.26;100.00
28027;BME280;15344;52.342;-1.290;2024-02-23T02:53:12;96909.48;;;4.73;100.00
28027;BME280;15344;52.342;-1.290;2024-02-23T02:55:40;96911.83;;;4.86;100.00
28027;BME280;15344;52.342;-1.290;2024-02-23T02:58:03;96909.68;;;4.57;100.00
28027;BME280;15344;52.342;-1.290;2024-02-23T03:00:29;96912.91;;;4.84;100.00
28027;BME280;15344;52.342;-1.290;2024-02-23T03:02:54;96908.52;;;4.92;100.00
28027;BME280;15344;52.342;-1.290;2024-02-23T03:05:20;96909.72;;;4.89;100.00
28027;BME280;15344;52.342;-1.290;2024-02-23T03:07:46;96904.85;;;4.71;100.00
28027;BME280;15344;52.342;-1.290;2024-02-23T03:10:16;96902.71;;;4.45;100.00
28027;BME280;15344;52.342;-1.290;2024-02-23T03:12:37;96906.59;;;4.88;100.00
28027;BME280;15344;52.342;-1.290;2024-02-23T03:15:03;96905.14;;;4.52;100.00
28027;BME280;15344;52.342;-1.290;2024-02-23T03:17:28;96900.64;;;4.37;100.00
28027;BME280;15344;52.342;-1.290;2024-02-23T03:19:53;96900.99;;;5.24;100.00
28027;BME280;15344;52.342;-1.290;2024-02-23T03:22:19;96906.46;;;5.85;100.00
28027;BME280;15344;52.342;-1.290;2024-02-23T03:24:45;96904.80;;;5.34;100.00
28027;BME280;15344;52.342;-1.290;2024-02-23T03:27:10;96905.12;;;5.65;100.00
28027;BME280;15344;52.342;-1.290;2024-02-23T03:29:37;96903.63;;;5.19;100.00
28027;BME280;15344;52.342;-1.290;2024-02-23T03:32:01;96897.65;;;5.45;100.00
28027;BME280;15344;52.342;-1.290;2024-02-23T03:34:27;96897.12;;;5.44;100.00
28027;BME280;15344;52.342;-1.290;2024-02-23T03:36:52;96897.40;;;5.33;100.00
28027;BME280;15344;52.342;-1.290;2024-02-23T03:39:18;96900.71;;;5.84;100.00
28027;BME280;15344;52.342;-1.290;2024-02-23T03:41:43;96903.69;;;5.59;100.00
28027;BME280;15344;52.342;-1.290;2024-02-23T03:44:09;96906.53;;;5.48;100.00
28027;BME280;15344;52.342;-1.290;2024-02-23T03:46:35;96907.13;;;6.35;100.00
28027;BME280;15344;52.342;-1.290;2024-02-23T03:49:00;96907.41;;;4.97;100.00
28027;BME280;15344;52.342;-1.290;2024-02-23T03:51:26;96913.43;;;6.14;100.00
28027;BME280;15344;52.342;-1.290;2024-02-23T03:53:51;96908.24;;;5.81;100.00
28027;BME280;15344;52.342;-1.290;2024-02-23T03:56:17;96922.03;;;5.87;100.00
28027;BME280;15344;52.342;-1.290;2024-02-23T03:58:42;96913.86;;;6.05;100.00
28027;BME280;15344;52.342;-1.290;2024-02-23T04:01:08;96914.05;;;5.71;100.00
28027;BME280;15344;52.342;-1.290;2024-02-23T04:03:34;96911.74;;;5.80;100.00
28027;BME280;15344;52.342;-1.290;2024-02-23T04:05:59;96908.68;;;6.56;100.00
28027;BME280;15344;52.342;-1.290;2024-02-23T04:08:30;96907.18;;;5.46;100.00
28027;BME280;15344;52.342;-1.290;2024-02-23T04:10:50;96899.80;;;5.77;100.00
28027;BME280;15344;52.342;-1.290;2024-02-23T04:13:16;96894.06;;;5.79;100.00
28027;BME280;15344;52.342;-1.290;2024-02-23T04:15:41;96893.16;;;6.29;100.00
28027;BME280;15344;52.342;-1.290;2024-02-23T04:18:07;96887.05;;;5.84;100.00
28027;BME280;15344;52.342;-1.290;2024-02-23T04:20:32;96887.27;;;4.91;100.00
28027;BME280;15344;52.342;-1.290;2024-02-23T04:22:58;96884.66;;;5.50;100.00
28027;BME280;15344;52.342;-1.290;2024-02-23T04:25:24;96885.93;;;6.19;100.00
28027;BME280;15344;52.342;-1.290;2024-02-23T04:27:49;96884.23;;;5.14;100.00
28027;BME280;15344;52.342;-1.290;2024-02-23T04:30:15;96883.18;;;5.04;100.00
28027;BME280;15344;52.342;-1.290;2024-02-23T04:32:40;96877.38;;;5.52;100.00
28027;BME280;15344;52.342;-1.290;2024-02-23T04:35:07;96877.60;;;4.99;100.00
28027;BME280;15344;52.342;-1.290;2024-02-23T04:37:32;96886.68;;;5.08;100.00
28027;BME280;15344;52.342;-1.290;2024-02-23T04:39:57;96890.08;;;5.64;100.00
28027;BME280;15344;52.342;-1.290;2024-02-23T04:42:23;96892.06;;;4.38;100.00
28027;BME280;15344;52.342;-1.290;2024-02-23T04:44:48;96889.03;;;4.56;100.00
28027;BME280;15344;52.342;-1.290;2024-02-23T04:47:14;96896.59;;;4.80;100.00
28027;BME280;15344;52.342;-1.290;2024-02-23T04:49:39;96889.24;;;4.78;100.00
28027;BME280;15344;52.342;-1.290;2024-02-23T04:52:06;96887.61;;;5.35;100.00
28027;BME280;15344;52.342;-1.290;2024-02-23T04:54:31;96893.37;;;5.25;100.00
28027;BME280;15344;52.342;-1.290;2024-02-23T04:57:01;96895.65;;;5.30;100.00
28027;BME280;15344;52.342;-1.290;2024-02-23T04:59:22;96897.46;;;5.27;100.00
28027;BME280;15344;52.342;-1.290;2024-02-23T05:01:47;96904.66;;;5.20;100.00
28027;BME280;15344;52.342;-1.290;2024-02-23T05:04:13;96916.74;;;4.95;100.00
28027;BME280;15344;52.342;-1.290;2024-02-23T05:06:39;96916.92;;;5.55;100.00
28027;BME280;15344;52.342;-1.290;2024-02-23T05:09:04;96920.12;;;5.09;100.00
28027;BME280;15344;52.342;-1.290;2024-02-23T05:11:30;96928.07;;;5.08;100.00
28027;BME280;15344;52.342;-1.290;2024-02-23T05:13:56;96928.53;;;5.42;100.00
28027;BME280;15344;52.342;-1.290;2024-02-23T05:16:21;96932.58;;;4.95;100.00
28027;BME280;15344;52.342;-1.290;2024-02-23T05:18:47;96942.64;;;5.28;100.00
28027;BME280;15344;52.342;-1.290;2024-02-23T05:21:14;96944.69;;;5.28;100.00
28027;BME280;15344;52.342;-1.290;2024-02-23T05:23:38;96945.73;;;4.91;100.00
28027;BME280;15344;52.342;-1.290;2024-02-23T05:26:04;96944.99;;;5.32;100.00
28027;BME280;15344;52.342;-1.290;2024-02-23T05:28:29;96949.38;;;4.83;100.00
28027;BME280;15344;52.342;-1.290;2024-02-23T05:30:55;96945.51;;;5.25;100.00
28027;BME280;15344;52.342;-1.290;2024-02-23T05:33:20;96944.13;;;4.43;100.00
28027;BME280;15344;52.342;-1.290;2024-02-23T05:35:46;96945.91;;;4.92;100.00
28027;BME280;15344;52.342;-1.290;2024-02-23T05:38:12;96949.15;;;4.94;100.00
28027;BME280;15344;52.342;-1.290;2024-02-23T05:40:37;96948.29;;;4.85;100.00
28027;BME280;15344;52.342;-1.290;2024-02-23T05:43:03;96950.54;;;4.81;100.00
28027;BME280;15344;52.342;-1.290;2024-02-23T05:45:28;96951.41;;;4.43;100.00
28027;BME280;15344;52.342;-1.290;2024-02-23T05:47:54;96954.86;;;5.21;100.00
28027;BME280;15344;52.342;-1.290;2024-02-23T05:50:20;96954.51;;;4.81;100.00
28027;BME280;15344;52.342;-1.290;2024-02-23T05:52:45;96960.21;;;4.01;100.00
28027;BME280;15344;52.342;-1.290;2024-02-23T05:55:11;96954.81;;;4.54;100.00
28027;BME280;15344;52.342;-1.290;2024-02-23T05:57:36;96960.00;;;4.36;100.00
28027;BME280;15344;52.342;-1.290;2024-02-23T06:00:03;96962.52;;;3.75;100.00
28027;BME280;15344;52.342;-1.290;2024-02-23T06:02:28;96955.05;;;4.00;100.00
28027;BME280;15344;52.342;-1.290;2024-02-23T06:04:53;96949.83;;;4.54;100.00
28027;BME280;15344;52.342;-1.290;2024-02-23T06:07:19;96952.66;;;4.48;100.00
28027;BME280;15344;52.342;-1.290;2024-02-23T06:09:44;96950.15;;;4.13;100.00
28027;BME280;15344;52.342;-1.290;2024-02-23T06:12:10;96948.90;;;4.85;100.00
28027;BME280;15344;52.342;-1.290;2024-02-23T06:14:36;96951.70;;;4.55;100.00
28027;BME280;15344;52.342;-1.290;2024-02-23T06:17:02;96955.66;;;4.83;100.00
28027;BME280;15344;52.342;-1.290;2024-02-23T06:19:27;96961.18;;;4.68;100.00
28027;BME280;15344;52.342;-1.290;2024-02-23T06:21:53;96963.43;;;4.77;100.00
28027;BME280;15344;52.342;-1.290;2024-02-23T06:24:18;96961.43;;;3.90;100.00
28027;BME280;15344;52.342;-1.290;2024-02-23T06:26:44;96965.40;;;4.22;100.00
28027;BME280;15344;52.342;-1.290;2024-02-23T06:29:09;96972.07;;;4.20;100.00
28027;BME280;15344;52.342;-1.290;2024-02-23T06:31:35;96976.11;;;4.79;100.00
28027;BME280;15344;52.342;-1.290;2024-02-23T06:34:01;96976.08;;;3.72;100.00
28027;BME280;15344;52.342;-1.290;2024-02-23T06:36:26;96979.03;;;4.33;100.00
28027;BME280;15344;52.342;-1.290;2024-02-23T06:38:52;96984.31;;;4.17;100.00
28027;BME280;15344;52.342;-1.290;2024-02-23T06:41:18;96989.46;;;3.94;100.00
28027;BME280;15344;52.342;-1.290;2024-02-23T06:43:43;96987.56;;;4.26;100.00
28027;BME280;15344;52.342;-1.290;2024-02-23T06:46:09;96989.87;;;3.99;100.00
28027;BME280;15344;52.342;-1.290;2024-02-23T06:48:35;96990.09;;;4.28;100.00
28027;BME280;15344;52.342;-1.290;2024-02-23T06:51:00;96993.07;;;4.13;100.00
28027;BME280;15344;52.342;-1.290;2024-02-23T06:53:26;96994.12;;;4.39;100.00
28027;BME280;15344;52.342;-1.290;2024-02-23T06:55:52;97002.75;;;3.91;100.00
28027;BME280;15344;52.342;-1.290;2024-02-23T06:58:17;96992.46;;;5.08;100.00
28027;BME280;15344;52.342;-1.290;2024-02-23T07:00:43;96992.21;;;5.72;100.00
28027;BME280;15344;52.342;-1.290;2024-02-23T07:03:08;96996.31;;;5.60;100.00
28027;BME280;15344;52.342;-1.290;2024-02-23T07:05:34;96998.01;;;4.56;100.00
28027;BME280;15344;52.342;-1.290;2024-02-23T07:08:00;97005.37;;;4.45;100.00
28027;BME280;15344;52.342;-1.290;2024-02-23T07:10:25;97007.07;;;4.49;100.00
28027;BME280;15344;52.342;-1.290;2024-02-23T07:12:51;97008.39;;;4.26;100.00
28027;BME280;15344;52.342;-1.290;2024-02-23T07:15:16;97010.86;;;4.79;100.00
28027;BME280;15344;52.342;-1.290;2024-02-23T07:17:44;97014.32;;;4.50;100.00
28027;BME280;15344;52.342;-1.290;2024-02-23T07:20:08;97014.24;;;5.05;100.00
28027;BME280;15344;52.342;-1.290;2024-02-23T07:22:33;97017.74;;;4.88;100.00
28027;BME280;15344;52.342;-1.290;2024-02-23T07:24:59;97020.89;;;4.38;100.00
28027;BME280;15344;52.342;-1.290;2024-02-23T07:27:24;97019.25;;;4.26;100.00
28027;BME280;15344;52.342;-1.290;2024-02-23T07:29:50;97020.00;;;4.72;100.00
28027;BME280;15344;52.342;-1.290;2024-02-23T07:32:16;97022.57;;;4.50;100.00
28027;BME280;15344;52.342;-1.290;2024-02-23T07:34:41;97024.62;;;4.98;100.00
28027;BME280;15344;52.342;-1.290;2024-02-23T07:37:07;97026.19;;;4.98;100.00
28027;BME280;15344;52.342;-1.290;2024-02-23T07:39:32;97025.11;;;4.99;100.00
28027;BME280;15344;52.342;-1.290;2024-02-23T07:41:58;97024.65;;;4.44;100.00
28027;BME280;15344;52.342;-1.290;2024-02-23T07:44:24;97025.36;;;4.25;100.00
28027;BME280;15344;52.342;-1.290;2024-02-23T07:46:49;97028.18;;;4.89;100.00
28027;BME280;15344;52.342;-1.290;2024-02-23T07:49:15;97029.87;;;4.62;100.00
28027;BME280;15344;52.342;-1.290;2024-02-23T07:51:40;97033.38;;;4.89;100.00
28027;BME280;15344;52.342;-1.290;2024-02-23T07:54:06;97034.61;;;5.17;100.00
28027;BME280;15344;52.342;-1.290;2024-02-23T07:56:32;97036.20;;;4.50;100.00
28027;BME280;15344;52.342;-1.290;2024-02-23T07:58:57;97036.34;;;4.32;100.00
28027;BME280;15344;52.342;-1.290;2024-02-23T08:01:23;97044.12;;;4.75;100.00
28027;BME280;15344;52.342;-1.290;2024-02-23T08:03:48;97048.79;;;5.18;100.00
28027;BME280;15344;52.342;-1.290;2024-02-23T08:06:14;97055.96;;;4.85;100.00
28027;BME280;15344;52.342;-1.290;2024-02-23T08:08:40;97049.52;;;5.00;100.00
28027;BME280;15344;52.342;-1.290;2024-02-23T08:11:05;97053.81;;;5.51;100.00
28027;BME280;15344;52.342;-1.290;2024-02-23T08:13:31;97054.14;;;4.89;100.00
28027;BME280;15344;52.342;-1.290;2024-02-23T08:15:57;97059.10;;;4.47;100.00
28027;BME280;15344;52.342;-1.290;2024-02-23T08:18:27;97066.32;;;4.45;100.00
28027;BME280;15344;52.342;-1.290;2024-02-23T08:20:48;97071.42;;;4.54;100.00
28027;BME280;15344;52.342;-1.290;2024-02-23T08:23:14;97078.13;;;4.56;100.00
28027;BME280;15344;52.342;-1.290;2024-02-23T08:25:39;97077.97;;;5.64;100.00
28027;BME280;15344;52.342;-1.290;2024-02-23T08:28:05;97074.39;;;5.54;100.00
28027;BME280;15344;52.342;-1.290;2024-02-23T08:30:30;97080.29;;;5.24;100.00
28027;BME280;15344;52.342;-1.290;2024-02-23T08:32:56;97083.51;;;4.70;100.00
28027;BME280;15344;52.342;-1.290;2024-02-23T08:35:22;97083.63;;;5.16;100.00
28027;BME280;15344;52.342;-1.290;2024-02-23T08:37:47;97087.07;;;5.00;100.00
28027;BME280;15344;52.342;-1.290;2024-02-23T08:40:13;97084.38;;;4.93;100.00
28027;BME280;15344;52.342;-1.290;2024-02-23T08:42:38;97086.99;;;5.14;100.00
28027;BME280;15344;52.342;-1.290;2024-02-23T08:45:05;97086.57;;;6.02;100.00
28027;BME280;15344;52.342;-1.290;2024-02-23T08:47:29;97091.99;;;5.44;100.00
28027;BME280;15344;52.342;-1.290;2024-02-23T08:49:55;97088.23;;;5.61;100.00
28027;BME280;15344;52.342;-1.290;2024-02-23T08:52:21;97096.10;;;5.62;100.00
28027;BME280;15344;52.342;-1.290;2024-02-23T08:54:46;97097.45;;;6.08;100.00
28027;BME280;15344;52.342;-1.290;2024-02-23T08:57:12;97095.90;;;5.56;100.00
28027;BME280;15344;52.342;-1.290;2024-02-23T08:59:37;97100.21;;;5.83;100.00
28027;BME280;15344;52.342;-1.290;2024-02-23T09:02:03;97096.08;;;5.90;100.00
28027;BME280;15344;52.342;-1.290;2024-02-23T09:04:28;97104.57;;;5.55;100.00
28027;BME280;15344;52.342;-1.290;2024-02-23T09:06:54;97103.64;;;5.82;100.00
28027;BME280;15344;52.342;-1.290;2024-02-23T09:09:20;97108.45;;;5.24;100.00
28027;BME280;15344;52.342;-1.290;2024-02-23T09:11:45;97111.24;;;6.55;100.00
28027;BME280;15344;52.342;-1.290;2024-02-23T09:14:11;97113.48;;;6.64;100.00
28027;BME280;15344;52.342;-1.290;2024-02-23T09:16:36;97118.61;;;6.92;100.00
28027;BME280;15344;52.342;-1.290;2024-02-23T09:19:03;97116.50;;;7.10;100.00
28027;BME280;15344;52.342;-1.290;2024-02-23T09:21:27;97125.63;;;7.20;100.00
28027;BME280;15344;52.342;-1.290;2024-02-23T09:23:53;97122.68;;;7.08;100.00
28027;BME280;15344;52.342;-1.290;2024-02-23T09:26:18;97120.17;;;7.72;100.00
28027;BME280;15344;52.342;-1.290;2024-02-23T09:28:44;97116.22;;;8.31;100.00
28027;BME280;15344;52.342;-1.290;2024-02-23T09:31:09;97114.72;;;7.62;100.00
28027;BME280;15344;52.342;-1.290;2024-02-23T09:33:35;97115.11;;;7.95;100.00
28027;BME280;15344;52.342;-1.290;2024-02-23T09:36:00;97119.38;;;7.77;100.00
28027;BME280;15344;52.342;-1.290;2024-02-23T09:38:26;97129.47;;;8.04;100.00
28027;BME280;15344;52.342;-1.290;2024-02-23T09:40:51;97131.02;;;8.14;100.00
28027;BME280;15344;52.342;-1.290;2024-02-23T09:43:17;97132.14;;;7.99;100.00
28027;BME280;15344;52.342;-1.290;2024-02-23T09:45:43;97133.68;;;7.46;100.00
28027;BME280;15344;52.342;-1.290;2024-02-23T09:48:10;97131.48;;;7.79;100.00
28027;BME280;15344;52.342;-1.290;2024-02-23T09:50:34;97143.09;;;7.60;100.00
28027;BME280;15344;52.342;-1.290;2024-02-23T09:52:59;97139.23;;;7.89;100.00
28027;BME280;15344;52.342;-1.290;2024-02-23T09:55:24;97140.97;;;7.81;100.00
28027;BME280;15344;52.342;-1.290;2024-02-23T09:57:52;97146.69;;;7.33;100.00
28027;BME280;15344;52.342;-1.290;2024-02-23T10:00:17;97147.41;;;7.21;100.00
28027;BME280;15344;52.342;-1.290;2024-02-23T10:02:41;97152.35;;;7.57;100.00
28027;BME280;15344;52.342;-1.290;2024-02-23T10:05:07;97151.24;;;6.97;100.00
28027;BME280;15344;52.342;-1.290;2024-02-23T10:07:31;97145.60;;;8.13;100.00
28027;BME280;15344;52.342;-1.290;2024-02-23T10:09:58;97150.32;;;8.10;100.00
28027;BME280;15344;52.342;-1.290;2024-02-23T10:12:22;97156.24;;;8.33;100.00
28027;BME280;15344;52.342;-1.290;2024-02-23T10:14:48;97159.64;;;8.59;100.00
28027;BME280;15344;52.342;-1.290;2024-02-23T10:17:13;97157.70;;;8.57;100.00
28027;BME280;15344;52.342;-1.290;2024-02-23T10:19:39;97158.49;;;8.37;100.00
28027;BME280;15344;52.342;-1.290;2024-02-23T10:22:05;97157.99;;;8.14;100.00
28027;BME280;15344;52.342;-1.290;2024-02-23T10:24:29;97155.43;;;7.96;100.00
28027;BME280;15344;52.342;-1.290;2024-02-23T10:26:55;97156.83;;;8.03;100.00
28027;BME280;15344;52.342;-1.290;2024-02-23T10:29:20;97156.78;;;9.20;100.00
28027;BME280;15344;52.342;-1.290;2024-02-23T10:31:47;97157.50;;;8.18;100.00
28027;BME280;15344;52.342;-1.290;2024-02-23T10:34:11;97157.06;;;8.33;100.00
28027;BME280;15344;52.342;-1.290;2024-02-23T10:36:39;97157.28;;;9.21;100.00
28027;BME280;15344;52.342;-1.290;2024-02-23T10:39:03;97154.76;;;9.11;100.00
28027;BME280;15344;52.342;-1.290;2024-02-23T10:41:28;97157.40;;;8.99;100.00
28027;BME280;15344;52.342;-1.290;2024-02-23T10:43:55;97156.49;;;8.57;100.00
28027;BME280;15344;52.342;-1.290;2024-02-23T10:46:20;97164.86;;;9.15;100.00
28027;BME280;15344;52.342;-1.290;2024-02-23T10:48:45;97170.62;;;9.18;100.00
28027;BME280;15344;52.342;-1.290;2024-02-23T10:51:11;97172.62;;;9.18;100.00
28027;BME280;15344;52.342;-1.290;2024-02-23T10:53:35;97176.60;;;9.78;100.00
28027;BME280;15344;52.342;-1.290;2024-02-23T10:56:00;97175.78;;;9.72;100.00
28027;BME280;15344;52.342;-1.290;2024-02-23T10:58:26;97175.36;;;8.76;100.00
28027;BME280;15344;52.342;-1.290;2024-02-23T11:00:51;97170.69;;;8.92;100.00
28027;BME280;15344;52.342;-1.290;2024-02-23T11:03:17;97171.28;;;8.82;100.00
28027;BME280;15344;52.342;-1.290;2024-02-23T11:05:43;97173.13;;;9.23;100.00
28027;BME280;15344;52.342;-1.290;2024-02-23T11:08:08;97176.48;;;8.91;100.00
28027;BME280;15344;52.342;-1.290;2024-02-23T11:10:42;97179.14;;;8.71;100.00
28027;BME280;15344;52.342;-1.290;2024-02-23T11:12:59;97180.15;;;9.37;100.00
28027;BME280;15344;52.342;-1.290;2024-02-23T11:15:26;97182.36;;;8.82;100.00
28027;BME280;15344;52.342;-1.290;2024-02-23T11:17:50;97178.85;;;9.15;100.00
28027;BME280;15344;52.342;-1.290;2024-02-23T11:20:14;97185.71;;;9.65;100.00
28027;BME280;15344;52.342;-1.290;2024-02-23T11:22:41;97188.83;;;9.12;100.00
28027;BME280;15344;52.342;-1.290;2024-02-23T11:25:07;97181.67;;;8.53;100.00
28027;BME280;15344;52.342;-1.290;2024-02-23T11:27:31;97185.21;;;8.77;100.00
28027;BME280;15344;52.342;-1.290;2024-02-23T11:29:59;97185.05;;;8.93;100.00
28027;BME280;15344;52.342;-1.290;2024-02-23T11:32:22;97189.69;;;9.00;100.00
28027;BME280;15344;52.342;-1.290;2024-02-23T11:34:55;97190.03;;;8.40;100.00
28027;BME280;15344;52.342;-1.290;2024-02-23T11:37:13;97187.87;;;9.42;100.00
28027;BME280;15344;52.342;-1.290;2024-02-23T11:39:38;97187.70;;;9.79;100.00
28027;BME280;15344;52.342;-1.290;2024-02-23T11:42:04;97191.53;;;8.69;100.00
28027;BME280;15344;52.342;-1.290;2024-02-23T11:44:29;97199.32;;;8.69;100.00
28027;BME280;15344;52.342;-1.290;2024-02-23T11:46:54;97199.35;;;8.44;100.00
28027;BME280;15344;52.342;-1.290;2024-02-23T11:49:19;97201.58;;;8.72;100.00
28027;BME280;15344;52.342;-1.290;2024-02-23T11:51:45;97199.94;;;8.80;100.00
28027;BME280;15344;52.342;-1.290;2024-02-23T11:54:10;97203.68;;;8.85;100.00
28027;BME280;15344;52.342;-1.290;2024-02-23T11:56:36;97204.40;;;8.91;100.00
28027;BME280;15344;52.342;-1.290;2024-02-23T11:59:01;97203.44;;;9.65;100.00
28027;BME280;15344;52.342;-1.290;2024-02-23T12:01:29;97199.95;;;9.45;100.00
28027;BME280;15344;52.342;-1.290;2024-02-23T12:03:52;97200.63;;;8.43;100.00
28027;BME280;15344;52.342;-1.290;2024-02-23T12:06:17;97198.97;;;8.96;100.00
28027;BME280;15344;52.342;-1.290;2024-02-23T12:08:42;97196.14;;;9.38;100.00
28027;BME280;15344;52.342;-1.290;2024-02-23T12:11:09;97194.31;;;8.68;100.00
28027;BME280;15344;52.342;-1.290;2024-02-23T12:13:33;97200.08;;;9.38;100.00
28027;BME280;15344;52.342;-1.290;2024-02-23T12:15:59;97201.01;;;9.34;100.00
28027;BME280;15344;52.342;-1.290;2024-02-23T12:18:24;97200.23;;;8.98;100.00
28027;BME280;15344;52.342;-1.290;2024-02-23T12:20:49;97196.27;;;10.00;99.94
28027;BME280;15344;52.342;-1.290;2024-02-23T12:23:15;97195.06;;;10.18;94.46
28027;BME280;15344;52.342;-1.290;2024-02-23T12:25:40;97198.99;;;9.77;95.95
28027;BME280;15344;52.342;-1.290;2024-02-23T12:28:06;97197.65;;;10.41;92.85
28027;BME280;15344;52.342;-1.290;2024-02-23T12:30:31;97199.03;;;9.78;97.49
28027;BME280;15344;52.342;-1.290;2024-02-23T12:33:03;97199.72;;;8.22;100.00
28027;BME280;15344;52.342;-1.290;2024-02-23T12:35:22;97198.04;;;9.60;99.52
28027;BME280;15344;52.342;-1.290;2024-02-23T12:37:48;97195.52;;;9.73;97.64
28027;BME280;15344;52.342;-1.290;2024-02-23T12:40:13;97196.99;;;9.62;98.18
28027;BME280;15344;52.342;-1.290;2024-02-23T12:42:38;97191.31;;;8.66;100.00